sensor_id;sensor_type;location;lat;lon;timestamp;temperature;humidity
64255;DHT22;50593;44.748;19.692;2022-08-18T00:00:04;29.80;43.30
64255;DHT22;50593;44.748;19.692;2022-08-18T00:00:25;29.70;43.20
64255;DHT22;50593;44.748;19.692;2022-08-18T00:00:47;29.70;43.10
64255;DHT22;50593;44.748;19.692;2022-08-18T00:01:08;29.70;43.20
64255;DHT22;50593;44.748;19.692;2022-08-18T00:01:32;29.70;43.20
64255;DHT22;50593;44.748;19.692;2022-08-18T00:02:03;29.70;43.20
64255;DHT22;50593;44.748;19.692;2022-08-18T00:02:24;29.70;42.30
64255;DHT22;50593;44.748;19.692;2022-08-18T00:02:45;29.70;43.30
64255;DHT22;50593;44.748;19.692;2022-08-18T00:03:06;29.70;43.20
64255;DHT22;50593;44.748;19.692;2022-08-18T00:03:27;29.70;42.30
64255;DHT22;50593;44.748;19.692;2022-08-18T00:03:49;29.70;43.30
64255;DHT22;50593;44.748;19.692;2022-08-18T00:04:10;29.70;43.30
64255;DHT22;50593;44.748;19.692;2022-08-18T00:04:31;29.70;43.30
64255;DHT22;50593;44.748;19.692;2022-08-18T00:04:52;29.70;42.40
64255;DHT22;50593;44.748;19.692;2022-08-18T00:05:13;29.70;43.30
64255;DHT22;50593;44.748;19.692;2022-08-18T00:05:34;29.70;43.30
64255;DHT22;50593;44.748;19.692;2022-08-18T00:05:55;29.70;43.50
64255;DHT22;50593;44.748;19.692;2022-08-18T00:06:17;29.70;43.50
64255;DHT22;50593;44.748;19.692;2022-08-18T00:06:39;29.70;43.30
64255;DHT22;50593;44.748;19.692;2022-08-18T00:06:59;29.70;43.30
64255;DHT22;50593;44.748;19.692;2022-08-18T00:07:23;29.70;43.30
64255;DHT22;50593;44.748;19.692;2022-08-18T00:07:44;29.70;43.30
64255;DHT22;50593;44.748;19.692;2022-08-18T00:08:06;29.60;42.20
64255;DHT22;50593;44.748;19.692;2022-08-18T00:08:26;29.70;43.30
64255;DHT22;50593;44.748;19.692;2022-08-18T00:08:48;29.70;43.30
64255;DHT22;50593;44.748;19.692;2022-08-18T00:09:09;29.70;42.60
64255;DHT22;50593;44.748;19.692;2022-08-18T00:09:30;29.60;43.40
64255;DHT22;50593;44.748;19.692;2022-08-18T00:09:50;29.60;42.50
64255;DHT22;50593;44.748;19.692;2022-08-18T00:10:11;29.70;43.80
64255;DHT22;50593;44.748;19.692;2022-08-18T00:10:32;29.70;43.70
64255;DHT22;50593;44.748;19.692;2022-08-18T00:10:52;29.70;43.60
64255;DHT22;50593;44.748;19.692;2022-08-18T00:11:13;29.60;43.60
64255;DHT22;50593;44.748;19.692;2022-08-18T00:11:35;29.70;43.60
64255;DHT22;50593;44.748;19.692;2022-08-18T00:11:56;29.60;43.60
64255;DHT22;50593;44.748;19.692;2022-08-18T00:12:18;29.60;42.60
64255;DHT22;50593;44.748;19.692;2022-08-18T00:12:40;29.60;43.80
64255;DHT22;50593;44.748;19.692;2022-08-18T00:13:01;29.70;44.20
64255;DHT22;50593;44.748;19.692;2022-08-18T00:13:21;29.60;42.70
64255;DHT22;50593;44.748;19.692;2022-08-18T00:13:43;29.60;43.80
64255;DHT22;50593;44.748;19.692;2022-08-18T00:14:04;29.60;44.10
64255;DHT22;50593;44.748;19.692;2022-08-18T00:14:25;29.60;43.80
64255;DHT22;50593;44.748;19.692;2022-08-18T00:14:45;29.60;43.60
64255;DHT22;50593;44.748;19.692;2022-08-18T00:15:08;29.60;43.50
64255;DHT22;50593;44.748;19.692;2022-08-18T00:15:29;29.60;43.70
64255;DHT22;50593;44.748;19.692;2022-08-18T00:15:50;29.60;42.70
64255;DHT22;50593;44.748;19.692;2022-08-18T00:16:10;29.60;43.80
64255;DHT22;50593;44.748;19.692;2022-08-18T00:16:31;29.50;42.50
64255;DHT22;50593;44.748;19.692;2022-08-18T00:16:52;29.60;42.60
64255;DHT22;50593;44.748;19.692;2022-08-18T00:17:13;29.50;42.70
64255;DHT22;50593;44.748;19.692;2022-08-18T00:17:35;29.60;43.70
64255;DHT22;50593;44.748;19.692;2022-08-18T00:17:55;29.60;42.90
64255;DHT22;50593;44.748;19.692;2022-08-18T00:18:16;29.60;42.90
64255;DHT22;50593;44.748;19.692;2022-08-18T00:18:36;29.60;43.00
64255;DHT22;50593;44.748;19.692;2022-08-18T00:18:57;29.60;42.70
64255;DHT22;50593;44.748;19.692;2022-08-18T00:19:18;29.60;43.70
64255;DHT22;50593;44.748;19.692;2022-08-18T00:19:38;29.60;43.70
64255;DHT22;50593;44.748;19.692;2022-08-18T00:19:59;29.60;43.70
64255;DHT22;50593;44.748;19.692;2022-08-18T00:20:22;29.60;42.80
64255;DHT22;50593;44.748;19.692;2022-08-18T00:20:42;29.50;43.80
64255;DHT22;50593;44.748;19.692;2022-08-18T00:21:04;29.50;43.60
64255;DHT22;50593;44.748;19.692;2022-08-18T00:21:24;29.60;43.70
64255;DHT22;50593;44.748;19.692;2022-08-18T00:21:45;29.60;44.10
64255;DHT22;50593;44.748;19.692;2022-08-18T00:22:06;29.50;42.80
64255;DHT22;50593;44.748;19.692;2022-08-18T00:22:27;29.60;44.10
64255;DHT22;50593;44.748;19.692;2022-08-18T00:22:48;29.60;43.90
64255;DHT22;50593;44.748;19.692;2022-08-18T00:23:09;29.60;43.90
64255;DHT22;50593;44.748;19.692;2022-08-18T00:23:30;29.60;44.10
64255;DHT22;50593;44.748;19.692;2022-08-18T00:23:52;29.50;43.10
64255;DHT22;50593;44.748;19.692;2022-08-18T00:24:12;29.50;43.10
64255;DHT22;50593;44.748;19.692;2022-08-18T00:24:33;29.60;43.10
64255;DHT22;50593;44.748;19.692;2022-08-18T00:24:57;29.60;44.10
64255;DHT22;50593;44.748;19.692;2022-08-18T00:25:19;29.60;44.00
64255;DHT22;50593;44.748;19.692;2022-08-18T00:25:39;29.60;44.00
64255;DHT22;50593;44.748;19.692;2022-08-18T00:26:03;29.60;44.20
64255;DHT22;50593;44.748;19.692;2022-08-18T00:26:24;29.50;43.00
64255;DHT22;50593;44.748;19.692;2022-08-18T00:26:45;29.50;43.10
64255;DHT22;50593;44.748;19.692;2022-08-18T00:27:05;29.50;43.20
64255;DHT22;50593;44.748;19.692;2022-08-18T00:27:29;29.50;43.20
64255;DHT22;50593;44.748;19.692;2022-08-18T00:27:50;29.60;44.10
64255;DHT22;50593;44.748;19.692;2022-08-18T00:28:11;29.50;43.10
64255;DHT22;50593;44.748;19.692;2022-08-18T00:28:33;29.60;45.30
64255;DHT22;50593;44.748;19.692;2022-08-18T00:28:53;29.50;43.20
64255;DHT22;50593;44.748;19.692;2022-08-18T00:29:14;29.60;44.30
64255;DHT22;50593;44.748;19.692;2022-08-18T00:29:35;29.50;43.10
64255;DHT22;50593;44.748;19.692;2022-08-18T00:29:59;29.50;44.10
64255;DHT22;50593;44.748;19.692;2022-08-18T00:30:20;29.50;44.00
64255;DHT22;50593;44.748;19.692;2022-08-18T00:30:41;29.50;44.00
64255;DHT22;50593;44.748;19.692;2022-08-18T00:31:03;29.60;44.00
64255;DHT22;50593;44.748;19.692;2022-08-18T00:31:24;29.60;44.00
64255;DHT22;50593;44.748;19.692;2022-08-18T00:31:46;29.50;43.00
64255;DHT22;50593;44.748;19.692;2022-08-18T00:32:10;29.50;43.00
64255;DHT22;50593;44.748;19.692;2022-08-18T00:32:33;29.60;44.00
64255;DHT22;50593;44.748;19.692;2022-08-18T00:32:54;29.60;44.10
64255;DHT22;50593;44.748;19.692;2022-08-18T00:33:15;29.60;44.00
64255;DHT22;50593;44.748;19.692;2022-08-18T00:33:37;29.50;43.00
64255;DHT22;50593;44.748;19.692;2022-08-18T00:33:58;29.60;44.10
64255;DHT22;50593;44.748;19.692;2022-08-18T00:34:19;29.50;44.00
64255;DHT22;50593;44.748;19.692;2022-08-18T00:34:40;29.60;43.10
64255;DHT22;50593;44.748;19.692;2022-08-18T00:35:13;29.50;43.00
64255;DHT22;50593;44.748;19.692;2022-08-18T00:35:35;29.50;43.10
64255;DHT22;50593;44.748;19.692;2022-08-18T00:35:56;29.60;44.40
64255;DHT22;50593;44.748;19.692;2022-08-18T00:36:19;29.50;44.40
64255;DHT22;50593;44.748;19.692;2022-08-18T00:36:39;29.50;44.20
64255;DHT22;50593;44.748;19.692;2022-08-18T00:37:00;29.50;44.10
64255;DHT22;50593;44.748;19.692;2022-08-18T00:37:21;29.50;44.10
64255;DHT22;50593;44.748;19.692;2022-08-18T00:37:42;29.50;43.10
64255;DHT22;50593;44.748;19.692;2022-08-18T00:38:04;29.50;43.00
64255;DHT22;50593;44.748;19.692;2022-08-18T00:38:25;29.50;44.00
64255;DHT22;50593;44.748;19.692;2022-08-18T00:38:46;29.50;43.30
64255;DHT22;50593;44.748;19.692;2022-08-18T00:39:06;29.50;43.40
64255;DHT22;50593;44.748;19.692;2022-08-18T00:39:27;29.50;44.20
64255;DHT22;50593;44.748;19.692;2022-08-18T00:39:51;29.50;44.10
64255;DHT22;50593;44.748;19.692;2022-08-18T00:40:13;29.50;44.20
64255;DHT22;50593;44.748;19.692;2022-08-18T00:40:38;29.50;44.20
64255;DHT22;50593;44.748;19.692;2022-08-18T00:40:58;29.50;44.40
64255;DHT22;50593;44.748;19.692;2022-08-18T00:41:20;29.50;44.50
64255;DHT22;50593;44.748;19.692;2022-08-18T00:41:46;29.50;44.50
64255;DHT22;50593;44.748;19.692;2022-08-18T00:42:13;29.50;44.50
64255;DHT22;50593;44.748;19.692;2022-08-18T00:42:36;29.50;44.30
64255;DHT22;50593;44.748;19.692;2022-08-18T00:43:00;29.50;44.20
64255;DHT22;50593;44.748;19.692;2022-08-18T00:43:51;29.50;44.20
64255;DHT22;50593;44.748;19.692;2022-08-18T00:44:12;29.50;43.20
64255;DHT22;50593;44.748;19.692;2022-08-18T00:44:35;29.50;44.40
64255;DHT22;50593;44.748;19.692;2022-08-18T00:44:56;29.50;44.50
64255;DHT22;50593;44.748;19.692;2022-08-18T00:45:19;29.50;44.30
64255;DHT22;50593;44.748;19.692;2022-08-18T00:45:40;29.50;44.30
64255;DHT22;50593;44.748;19.692;2022-08-18T00:46:05;29.50;44.50
64255;DHT22;50593;44.748;19.692;2022-08-18T00:46:27;29.50;44.10
64255;DHT22;50593;44.748;19.692;2022-08-18T00:46:48;29.50;44.00
64255;DHT22;50593;44.748;19.692;2022-08-18T00:47:08;29.40;43.10
64255;DHT22;50593;44.748;19.692;2022-08-18T00:47:29;29.50;44.20
64255;DHT22;50593;44.748;19.692;2022-08-18T00:47:50;29.50;44.00
64255;DHT22;50593;44.748;19.692;2022-08-18T00:48:11;29.50;44.10
64255;DHT22;50593;44.748;19.692;2022-08-18T00:48:32;29.50;44.00
64255;DHT22;50593;44.748;19.692;2022-08-18T00:48:52;29.50;44.10
64255;DHT22;50593;44.748;19.692;2022-08-18T00:49:13;29.50;43.10
64255;DHT22;50593;44.748;19.692;2022-08-18T00:49:37;29.50;44.10
64255;DHT22;50593;44.748;19.692;2022-08-18T00:50:00;29.50;44.00
64255;DHT22;50593;44.748;19.692;2022-08-18T00:50:22;29.50;44.10
64255;DHT22;50593;44.748;19.692;2022-08-18T00:50:45;29.60;44.10
64255;DHT22;50593;44.748;19.692;2022-08-18T00:51:09;29.60;44.10
64255;DHT22;50593;44.748;19.692;2022-08-18T00:51:37;29.50;44.10
64255;DHT22;50593;44.748;19.692;2022-08-18T00:51:58;29.50;43.10
64255;DHT22;50593;44.748;19.692;2022-08-18T00:52:20;29.50;44.10
64255;DHT22;50593;44.748;19.692;2022-08-18T00:52:46;29.60;44.10
64255;DHT22;50593;44.748;19.692;2022-08-18T00:53:43;29.50;44.10
64255;DHT22;50593;44.748;19.692;2022-08-18T00:54:29;29.50;44.10
64255;DHT22;50593;44.748;19.692;2022-08-18T00:54:50;29.60;44.10
64255;DHT22;50593;44.748;19.692;2022-08-18T00:55:12;29.60;44.10
64255;DHT22;50593;44.748;19.692;2022-08-18T00:55:32;29.60;44.10
64255;DHT22;50593;44.748;19.692;2022-08-18T00:55:54;29.60;43.10
64255;DHT22;50593;44.748;19.692;2022-08-18T00:56:16;29.60;44.10
64255;DHT22;50593;44.748;19.692;2022-08-18T00:56:40;29.60;43.10
64255;DHT22;50593;44.748;19.692;2022-08-18T00:57:04;29.60;43.10
64255;DHT22;50593;44.748;19.692;2022-08-18T00:57:25;29.60;44.20
64255;DHT22;50593;44.748;19.692;2022-08-18T00:57:47;29.60;44.00
64255;DHT22;50593;44.748;19.692;2022-08-18T00:58:12;29.60;44.10
64255;DHT22;50593;44.748;19.692;2022-08-18T00:58:39;29.60;44.00
64255;DHT22;50593;44.748;19.692;2022-08-18T00:59:34;29.60;43.90
64255;DHT22;50593;44.748;19.692;2022-08-18T00:59:59;29.60;43.90
64255;DHT22;50593;44.748;19.692;2022-08-18T01:00:30;29.60;44.00
64255;DHT22;50593;44.748;19.692;2022-08-18T01:00:52;29.70;44.00
64255;DHT22;50593;44.748;19.692;2022-08-18T01:01:16;29.80;44.00
64255;DHT22;50593;44.748;19.692;2022-08-18T01:01:38;29.70;44.00
64255;DHT22;50593;44.748;19.692;2022-08-18T01:02:01;29.60;42.90
64255;DHT22;50593;44.748;19.692;2022-08-18T01:02:27;29.70;43.90
64255;DHT22;50593;44.748;19.692;2022-08-18T01:02:52;29.70;43.90
64255;DHT22;50593;44.748;19.692;2022-08-18T01:03:14;29.70;44.00
64255;DHT22;50593;44.748;19.692;2022-08-18T01:03:35;29.70;44.00
64255;DHT22;50593;44.748;19.692;2022-08-18T01:04:02;29.60;43.90
64255;DHT22;50593;44.748;19.692;2022-08-18T01:04:32;29.70;44.00
64255;DHT22;50593;44.748;19.692;2022-08-18T01:04:55;29.60;43.80
64255;DHT22;50593;44.748;19.692;2022-08-18T01:05:20;29.70;43.00
64255;DHT22;50593;44.748;19.692;2022-08-18T01:05:50;29.70;43.90
64255;DHT22;50593;44.748;19.692;2022-08-18T01:06:15;29.60;42.80
64255;DHT22;50593;44.748;19.692;2022-08-18T01:06:41;29.70;43.90
64255;DHT22;50593;44.748;19.692;2022-08-18T01:07:08;29.70;43.80
64255;DHT22;50593;44.748;19.692;2022-08-18T01:07:38;29.70;43.80
64255;DHT22;50593;44.748;19.692;2022-08-18T01:08:08;29.70;42.90
64255;DHT22;50593;44.748;19.692;2022-08-18T01:08:31;29.70;43.90
64255;DHT22;50593;44.748;19.692;2022-08-18T01:08:51;29.60;43.80
64255;DHT22;50593;44.748;19.692;2022-08-18T01:09:13;29.70;42.80
64255;DHT22;50593;44.748;19.692;2022-08-18T01:09:33;29.60;42.80
64255;DHT22;50593;44.748;19.692;2022-08-18T01:09:54;29.60;42.80
64255;DHT22;50593;44.748;19.692;2022-08-18T01:10:19;29.70;43.90
64255;DHT22;50593;44.748;19.692;2022-08-18T01:10:41;29.70;43.90
64255;DHT22;50593;44.748;19.692;2022-08-18T01:11:02;29.70;43.80
64255;DHT22;50593;44.748;19.692;2022-08-18T01:11:22;29.70;43.80
64255;DHT22;50593;44.748;19.692;2022-08-18T01:11:43;29.70;43.80
64255;DHT22;50593;44.748;19.692;2022-08-18T01:12:04;29.70;43.80
64255;DHT22;50593;44.748;19.692;2022-08-18T01:12:25;29.60;42.70
64255;DHT22;50593;44.748;19.692;2022-08-18T01:12:47;29.70;43.70
64255;DHT22;50593;44.748;19.692;2022-08-18T01:13:08;29.70;43.80
64255;DHT22;50593;44.748;19.692;2022-08-18T01:13:29;29.70;42.80
64255;DHT22;50593;44.748;19.692;2022-08-18T01:13:50;29.70;42.80
64255;DHT22;50593;44.748;19.692;2022-08-18T01:14:13;29.70;42.80
64255;DHT22;50593;44.748;19.692;2022-08-18T01:14:36;29.70;43.80
64255;DHT22;50593;44.748;19.692;2022-08-18T01:14:57;29.70;43.70
64255;DHT22;50593;44.748;19.692;2022-08-18T01:15:17;29.70;43.80
64255;DHT22;50593;44.748;19.692;2022-08-18T01:15:39;29.70;43.70
64255;DHT22;50593;44.748;19.692;2022-08-18T01:15:59;29.70;42.80
64255;DHT22;50593;44.748;19.692;2022-08-18T01:16:46;29.70;43.70
64255;DHT22;50593;44.748;19.692;2022-08-18T01:17:26;29.70;43.70
64255;DHT22;50593;44.748;19.692;2022-08-18T01:18:09;29.70;43.80
64255;DHT22;50593;44.748;19.692;2022-08-18T01:18:49;29.70;43.70
64255;DHT22;50593;44.748;19.692;2022-08-18T01:19:28;29.70;43.80
64255;DHT22;50593;44.748;19.692;2022-08-18T01:20:09;29.70;42.80
64255;DHT22;50593;44.748;19.692;2022-08-18T01:20:55;29.70;42.80
64255;DHT22;50593;44.748;19.692;2022-08-18T01:21:40;29.70;42.80
64255;DHT22;50593;44.748;19.692;2022-08-18T01:22:18;29.70;43.80
64255;DHT22;50593;44.748;19.692;2022-08-18T01:23:14;29.70;42.80
64255;DHT22;50593;44.748;19.692;2022-08-18T01:23:36;29.70;42.80
64255;DHT22;50593;44.748;19.692;2022-08-18T01:23:57;29.70;42.80
64255;DHT22;50593;44.748;19.692;2022-08-18T01:24:21;29.70;42.80
64255;DHT22;50593;44.748;19.692;2022-08-18T01:25:03;29.70;42.80
64255;DHT22;50593;44.748;19.692;2022-08-18T01:25:43;29.70;43.80
64255;DHT22;50593;44.748;19.692;2022-08-18T01:26:19;29.70;43.70
64255;DHT22;50593;44.748;19.692;2022-08-18T01:26:41;29.70;42.80
64255;DHT22;50593;44.748;19.692;2022-08-18T01:27:05;29.70;43.80
64255;DHT22;50593;44.748;19.692;2022-08-18T01:27:27;29.70;42.80
64255;DHT22;50593;44.748;19.692;2022-08-18T01:27:51;29.70;42.80
64255;DHT22;50593;44.748;19.692;2022-08-18T01:28:11;29.70;42.80
64255;DHT22;50593;44.748;19.692;2022-08-18T01:28:35;29.70;42.80
64255;DHT22;50593;44.748;19.692;2022-08-18T01:29:02;29.70;42.80
64255;DHT22;50593;44.748;19.692;2022-08-18T01:29:24;29.60;42.80
64255;DHT22;50593;44.748;19.692;2022-08-18T01:29:47;29.60;42.80
64255;DHT22;50593;44.748;19.692;2022-08-18T01:30:09;29.70;43.90
64255;DHT22;50593;44.748;19.692;2022-08-18T01:30:31;29.70;43.90
64255;DHT22;50593;44.748;19.692;2022-08-18T01:30:53;29.70;44.00
64255;DHT22;50593;44.748;19.692;2022-08-18T01:32:17;29.70;43.80
64255;DHT22;50593;44.748;19.692;2022-08-18T01:32:39;29.70;43.00
64255;DHT22;50593;44.748;19.692;2022-08-18T01:33:01;29.70;44.00
64255;DHT22;50593;44.748;19.692;2022-08-18T01:33:21;29.70;44.10
64255;DHT22;50593;44.748;19.692;2022-08-18T01:33:42;29.70;43.90
64255;DHT22;50593;44.748;19.692;2022-08-18T01:34:04;29.70;43.80
64255;DHT22;50593;44.748;19.692;2022-08-18T01:34:26;29.70;43.90
64255;DHT22;50593;44.748;19.692;2022-08-18T01:34:48;29.70;43.90
64255;DHT22;50593;44.748;19.692;2022-08-18T01:35:09;29.70;44.00
64255;DHT22;50593;44.748;19.692;2022-08-18T01:35:31;29.70;43.90
64255;DHT22;50593;44.748;19.692;2022-08-18T01:35:54;29.70;44.60
64255;DHT22;50593;44.748;19.692;2022-08-18T01:36:18;29.70;44.10
64255;DHT22;50593;44.748;19.692;2022-08-18T01:36:40;29.70;45.30
64255;DHT22;50593;44.748;19.692;2022-08-18T01:37:01;29.70;47.50
64255;DHT22;50593;44.748;19.692;2022-08-18T01:37:24;29.70;48.50
64255;DHT22;50593;44.748;19.692;2022-08-18T01:37:45;29.70;48.40
64255;DHT22;50593;44.748;19.692;2022-08-18T01:38:05;29.70;49.70
64255;DHT22;50593;44.748;19.692;2022-08-18T01:38:26;29.70;50.60
64255;DHT22;50593;44.748;19.692;2022-08-18T01:38:48;29.70;49.20
64255;DHT22;50593;44.748;19.692;2022-08-18T01:39:12;29.70;49.90
64255;DHT22;50593;44.748;19.692;2022-08-18T01:39:33;29.70;52.80
64255;DHT22;50593;44.748;19.692;2022-08-18T01:39:54;29.80;50.60
64255;DHT22;50593;44.748;19.692;2022-08-18T01:40:15;29.80;47.70
64255;DHT22;50593;44.748;19.692;2022-08-18T01:40:36;29.70;47.00
64255;DHT22;50593;44.748;19.692;2022-08-18T01:40:57;29.70;51.70
64255;DHT22;50593;44.748;19.692;2022-08-18T01:41:18;29.80;51.80
64255;DHT22;50593;44.748;19.692;2022-08-18T01:41:40;29.80;48.60
64255;DHT22;50593;44.748;19.692;2022-08-18T01:42:00;29.70;51.40
64255;DHT22;50593;44.748;19.692;2022-08-18T01:42:22;29.80;52.40
64255;DHT22;50593;44.748;19.692;2022-08-18T01:42:43;29.80;52.60
64255;DHT22;50593;44.748;19.692;2022-08-18T01:43:05;29.80;53.40
64255;DHT22;50593;44.748;19.692;2022-08-18T01:43:26;29.80;52.20
64255;DHT22;50593;44.748;19.692;2022-08-18T01:43:47;29.80;47.40
64255;DHT22;50593;44.748;19.692;2022-08-18T01:44:08;29.80;49.20
64255;DHT22;50593;44.748;19.692;2022-08-18T01:44:30;29.80;51.50
64255;DHT22;50593;44.748;19.692;2022-08-18T01:44:52;29.80;53.70
64255;DHT22;50593;44.748;19.692;2022-08-18T01:45:15;29.80;50.30
64255;DHT22;50593;44.748;19.692;2022-08-18T01:45:36;29.80;50.20
64255;DHT22;50593;44.748;19.692;2022-08-18T01:45:56;29.80;50.80
64255;DHT22;50593;44.748;19.692;2022-08-18T01:46:20;29.80;49.90
64255;DHT22;50593;44.748;19.692;2022-08-18T01:46:40;29.80;47.60
64255;DHT22;50593;44.748;19.692;2022-08-18T01:47:01;29.80;48.40
64255;DHT22;50593;44.748;19.692;2022-08-18T01:47:22;29.80;49.10
64255;DHT22;50593;44.748;19.692;2022-08-18T01:47:43;29.80;52.30
64255;DHT22;50593;44.748;19.692;2022-08-18T01:48:04;29.80;55.20
64255;DHT22;50593;44.748;19.692;2022-08-18T01:48:28;29.80;59.60
64255;DHT22;50593;44.748;19.692;2022-08-18T01:48:52;29.80;56.70
64255;DHT22;50593;44.748;19.692;2022-08-18T01:49:13;29.80;58.30
64255;DHT22;50593;44.748;19.692;2022-08-18T01:49:33;29.80;57.50
64255;DHT22;50593;44.748;19.692;2022-08-18T01:49:54;29.80;57.60
64255;DHT22;50593;44.748;19.692;2022-08-18T01:50:15;29.80;58.00
64255;DHT22;50593;44.748;19.692;2022-08-18T01:50:38;29.80;56.60
64255;DHT22;50593;44.748;19.692;2022-08-18T01:51:04;29.80;52.50
64255;DHT22;50593;44.748;19.692;2022-08-18T01:51:26;29.80;53.20
64255;DHT22;50593;44.748;19.692;2022-08-18T01:51:47;29.80;54.10
64255;DHT22;50593;44.748;19.692;2022-08-18T01:52:09;29.80;52.10
64255;DHT22;50593;44.748;19.692;2022-08-18T01:52:29;29.80;52.10
64255;DHT22;50593;44.748;19.692;2022-08-18T01:52:50;29.80;51.20
64255;DHT22;50593;44.748;19.692;2022-08-18T01:53:12;29.80;51.80
64255;DHT22;50593;44.748;19.692;2022-08-18T01:53:33;29.80;50.70
64255;DHT22;50593;44.748;19.692;2022-08-18T01:53:54;29.80;50.70
64255;DHT22;50593;44.748;19.692;2022-08-18T01:54:15;29.80;51.60
64255;DHT22;50593;44.748;19.692;2022-08-18T01:54:35;29.70;51.20
64255;DHT22;50593;44.748;19.692;2022-08-18T01:54:56;29.70;49.10
64255;DHT22;50593;44.748;19.692;2022-08-18T01:55:17;29.80;49.60
64255;DHT22;50593;44.748;19.692;2022-08-18T01:55:39;29.70;48.30
64255;DHT22;50593;44.748;19.692;2022-08-18T01:56:01;29.70;48.00
64255;DHT22;50593;44.748;19.692;2022-08-18T01:56:26;29.80;48.20
64255;DHT22;50593;44.748;19.692;2022-08-18T01:56:46;29.70;48.50
64255;DHT22;50593;44.748;19.692;2022-08-18T01:57:11;29.70;50.20
64255;DHT22;50593;44.748;19.692;2022-08-18T01:57:37;29.70;48.50
64255;DHT22;50593;44.748;19.692;2022-08-18T01:58:04;29.70;50.60
64255;DHT22;50593;44.748;19.692;2022-08-18T01:58:26;29.70;46.60
64255;DHT22;50593;44.748;19.692;2022-08-18T01:58:49;29.70;48.40
64255;DHT22;50593;44.748;19.692;2022-08-18T01:59:10;29.70;48.40
64255;DHT22;50593;44.748;19.692;2022-08-18T01:59:33;29.70;46.80
64255;DHT22;50593;44.748;19.692;2022-08-18T01:59:54;29.70;47.20
64255;DHT22;50593;44.748;19.692;2022-08-18T02:00:16;29.70;48.80
64255;DHT22;50593;44.748;19.692;2022-08-18T02:00:37;29.70;47.80
64255;DHT22;50593;44.748;19.692;2022-08-18T02:00:58;29.70;48.00
64255;DHT22;50593;44.748;19.692;2022-08-18T02:01:21;29.70;47.20
64255;DHT22;50593;44.748;19.692;2022-08-18T02:01:44;29.70;47.60
64255;DHT22;50593;44.748;19.692;2022-08-18T02:02:05;29.70;47.90
64255;DHT22;50593;44.748;19.692;2022-08-18T02:02:27;29.70;47.50
64255;DHT22;50593;44.748;19.692;2022-08-18T02:02:48;29.70;47.20
64255;DHT22;50593;44.748;19.692;2022-08-18T02:03:11;29.70;48.70
64255;DHT22;50593;44.748;19.692;2022-08-18T02:03:36;29.70;47.90
64255;DHT22;50593;44.748;19.692;2022-08-18T02:03:58;29.60;47.50
64255;DHT22;50593;44.748;19.692;2022-08-18T02:04:20;29.60;46.70
64255;DHT22;50593;44.748;19.692;2022-08-18T02:04:42;29.70;46.80
64255;DHT22;50593;44.748;19.692;2022-08-18T02:05:09;29.60;46.00
64255;DHT22;50593;44.748;19.692;2022-08-18T02:05:32;29.60;45.80
64255;DHT22;50593;44.748;19.692;2022-08-18T02:05:58;29.60;46.10
64255;DHT22;50593;44.748;19.692;2022-08-18T02:06:19;29.60;46.00
64255;DHT22;50593;44.748;19.692;2022-08-18T02:06:40;29.50;45.60
64255;DHT22;50593;44.748;19.692;2022-08-18T02:07:02;29.60;46.20
64255;DHT22;50593;44.748;19.692;2022-08-18T02:07:23;29.60;46.70
64255;DHT22;50593;44.748;19.692;2022-08-18T02:07:44;29.60;46.60
64255;DHT22;50593;44.748;19.692;2022-08-18T02:08:04;29.60;46.10
64255;DHT22;50593;44.748;19.692;2022-08-18T02:08:25;29.60;46.30
64255;DHT22;50593;44.748;19.692;2022-08-18T02:08:46;29.60;46.60
64255;DHT22;50593;44.748;19.692;2022-08-18T02:09:07;29.60;46.00
64255;DHT22;50593;44.748;19.692;2022-08-18T02:09:28;29.60;45.50
64255;DHT22;50593;44.748;19.692;2022-08-18T02:09:48;29.60;45.70
64255;DHT22;50593;44.748;19.692;2022-08-18T02:10:09;29.60;47.10
64255;DHT22;50593;44.748;19.692;2022-08-18T02:10:32;29.60;46.60
64255;DHT22;50593;44.748;19.692;2022-08-18T02:10:53;29.60;47.00
64255;DHT22;50593;44.748;19.692;2022-08-18T02:11:14;29.60;46.90
64255;DHT22;50593;44.748;19.692;2022-08-18T02:11:34;29.60;46.00
64255;DHT22;50593;44.748;19.692;2022-08-18T02:11:55;29.60;45.80
64255;DHT22;50593;44.748;19.692;2022-08-18T02:12:15;29.60;46.30
64255;DHT22;50593;44.748;19.692;2022-08-18T02:12:36;29.50;45.70
64255;DHT22;50593;44.748;19.692;2022-08-18T02:12:57;29.60;45.30
64255;DHT22;50593;44.748;19.692;2022-08-18T02:13:18;29.60;45.90
64255;DHT22;50593;44.748;19.692;2022-08-18T02:13:38;29.60;45.30
64255;DHT22;50593;44.748;19.692;2022-08-18T02:13:59;29.50;45.30
64255;DHT22;50593;44.748;19.692;2022-08-18T02:14:20;29.60;45.60
64255;DHT22;50593;44.748;19.692;2022-08-18T02:14:41;29.60;46.10
64255;DHT22;50593;44.748;19.692;2022-08-18T02:15:02;29.50;45.80
64255;DHT22;50593;44.748;19.692;2022-08-18T02:15:23;29.60;46.40
64255;DHT22;50593;44.748;19.692;2022-08-18T02:15:44;29.50;45.70
64255;DHT22;50593;44.748;19.692;2022-08-18T02:16:05;29.60;45.90
64255;DHT22;50593;44.748;19.692;2022-08-18T02:16:26;29.60;45.80
64255;DHT22;50593;44.748;19.692;2022-08-18T02:16:47;29.50;45.50
64255;DHT22;50593;44.748;19.692;2022-08-18T02:17:08;29.50;46.00
64255;DHT22;50593;44.748;19.692;2022-08-18T02:17:35;29.50;45.80
64255;DHT22;50593;44.748;19.692;2022-08-18T02:17:56;29.60;45.80
64255;DHT22;50593;44.748;19.692;2022-08-18T02:18:17;29.60;45.40
64255;DHT22;50593;44.748;19.692;2022-08-18T02:18:39;29.50;45.50
64255;DHT22;50593;44.748;19.692;2022-08-18T02:18:59;29.50;46.00
64255;DHT22;50593;44.748;19.692;2022-08-18T02:19:20;29.50;45.40
64255;DHT22;50593;44.748;19.692;2022-08-18T02:19:45;29.50;45.40
64255;DHT22;50593;44.748;19.692;2022-08-18T02:20:06;29.50;46.40
64255;DHT22;50593;44.748;19.692;2022-08-18T02:20:28;29.60;46.60
64255;DHT22;50593;44.748;19.692;2022-08-18T02:20:48;29.60;46.70
64255;DHT22;50593;44.748;19.692;2022-08-18T02:21:11;29.50;45.60
64255;DHT22;50593;44.748;19.692;2022-08-18T02:21:32;29.60;46.90
64255;DHT22;50593;44.748;19.692;2022-08-18T02:21:53;29.50;45.70
64255;DHT22;50593;44.748;19.692;2022-08-18T02:22:16;29.50;45.60
64255;DHT22;50593;44.748;19.692;2022-08-18T02:22:37;29.60;45.60
64255;DHT22;50593;44.748;19.692;2022-08-18T02:22:58;29.50;45.60
64255;DHT22;50593;44.748;19.692;2022-08-18T02:23:21;29.50;45.80
64255;DHT22;50593;44.748;19.692;2022-08-18T02:23:43;29.50;47.00
64255;DHT22;50593;44.748;19.692;2022-08-18T02:24:04;29.50;46.90